Terminal Aerodrome Forecast
Issued by NWS

Home | Current Version | Previous Version | Text Only | Print | Product List | Glossary On
Versions: 1 2 3 4 5 6 7 8 9 10 11 12 13 14 15 16 17
939
FTUS41 KGYX 021120
TAFLEB
TAF
KLEB 021120Z 0212/0312 00000KT 3SM -DZ BR OVC015
     FM021400 VRB03KT 2SM -RA BR BKN007 OVC015
     FM022300 02003KT P6SM SCT007 BKN015=

USA.gov is the U.S. government's official web portal to all federal, state and local government web resources and services.